Startpagina
METAR-TAF:

METAR-TAF

Vliegvelden :

Koror, Babelthuap Island, Palau

Roman Tmetuchl International Airport

breedte: 07-22N, lengte: 134-32E, hoogte: 54 m

Actueel weer

Dit bericht is 22 minuten geleden gemaakt, om 06:50 UTC
Wind 3 kt uit het oostnoordoosten
Temperatuur 29°C
Vochtigheid 79%
Druk 1009 hPa
Zicht: 24.1 km
Verspreide wolken op 1500 ft, Stapelwolken.
Gebroken wolken op 12000 ft
Gebroken wolken op 30000 ft

METAR: PTRO 300650Z 07003KT 15SM SCT015TCU BKN120 BKN300 29/25 A2979 RMK TCU VC ALQDS

Tijdstip: 16:12 (07:12 UTC)

Verwachting

Dit bericht is 1 uur en het 42 minuten geleden gemaakt, om 05:30 UTC
Verwachting geldig van 30 om 06 UTC tot 31 om 06 UTC
Wind 11 kt uit het oosten
Zicht: 10 km
Verspreide wolken op 1600 ft
Verspreide wolken op 5000 ft
Gebroken wolken op 13000 ft
buien in de omgeving

TAF: PTRO 300530Z 3006/3106 10011KT P6SM VCSH SCT016 SCT050 BKN130

Waarnemingen en weersverwachtingen van meer dan 4000 vliegvelden (METAR en TAF).

De beschikbare stations zijn de gele en rode punten op de kaart.

Ga met uw muis naar het station om de naam te zien.

Klik dan om waarnemingen en weersverwachtingen te zien.

kaart wijzigen: klik op de groene knoppen met een zwart kruis om in te zoomen, op de groene knop met een streepje om uit te zoomen of op de groene pijlen voor aangrenzende kaarten.


METAR-TAF: